createdAt,value
2022-09-10T00:02:04.615Z,69.94824
2022-09-10T00:04:04.482Z,69.87012
2022-09-10T00:06:04.392Z,69.83105
2022-09-10T00:08:04.511Z,69.4834
2022-09-10T00:10:04.353Z,70.13379
2022-09-10T00:12:04.338Z,69.85645
2022-09-10T00:14:04.390Z,69.91113
2022-09-10T00:16:46.268Z,70.52051
2022-09-10T00:18:46.322Z,70.65137
2022-09-10T00:20:46.301Z,70.50488
2022-09-10T00:22:46.453Z,70.25977
2022-09-10T00:24:46.477Z,70.18652
2022-09-10T00:26:46.406Z,70.60547
2022-09-10T00:28:46.390Z,72.11035
2022-09-10T00:31:46.853Z,71.44141
2022-09-10T00:33:46.612Z,71.08203
2022-09-10T00:35:46.620Z,71.05762
2022-09-10T00:37:46.758Z,71.03613
2022-09-10T00:39:46.785Z,71.19824
2022-09-10T00:41:46.566Z,70.73047
2022-09-10T00:43:46.562Z,71.22754
2022-09-10T00:46:48.292Z,71.4502
2022-09-10T00:48:48.029Z,70.5293
2022-09-10T00:50:48.052Z,70.89258
2022-09-10T00:52:48.074Z,71.30469
2022-09-10T00:54:48.162Z,72.48047
2022-09-10T00:56:48.072Z,72.22559
2022-09-10T00:58:48.071Z,73.21875
2022-09-10T01:00:48.203Z,72.97266
2022-09-10T01:02:34.175Z,72.19531
2022-09-10T01:04:34.074Z,71.82715
2022-09-10T01:06:34.108Z,72.28613
2022-09-10T01:08:34.158Z,72.2168
2022-09-10T01:10:34.192Z,71.67676
2022-09-10T01:12:36.216Z,71.91309
2022-09-10T01:14:34.122Z,71.75195
2022-09-10T01:17:19.254Z,71.13965
2022-09-10T01:19:18.951Z,70.54492
2022-09-10T01:21:18.883Z,71.40918
2022-09-10T01:23:18.960Z,71.08691
2022-09-10T01:25:18.996Z,71.29785
2022-09-10T01:27:18.997Z,71.39648
2022-09-10T01:29:19.032Z,70.9834
2022-09-10T01:32:24.079Z,71.11523
2022-09-10T01:34:24.067Z,71.4502
2022-09-10T01:36:24.078Z,71.20508
2022-09-10T01:38:24.057Z,71.33105
2022-09-10T01:40:24.094Z,71.25195
2022-09-10T01:42:24.120Z,71.06055
2022-09-10T01:44:24.203Z,71.07324
2022-09-10T01:46:24.085Z,70.52441
2022-09-10T01:47:37.416Z,70.88574
2022-09-10T01:49:37.182Z,70.9043
2022-09-10T01:51:37.594Z,70.79395
2022-09-10T01:53:37.203Z,70.51367
2022-09-10T01:55:37.147Z,71.00586
2022-09-10T01:57:37.289Z,71.33984
2022-09-10T01:59:37.311Z,71.29492
2022-09-10T02:03:02.279Z,71.02734
2022-09-10T02:05:02.083Z,70.81543
2022-09-10T02:07:01.976Z,71.24414
2022-09-10T02:09:02.022Z,72.36621
2022-09-10T02:11:01.921Z,72.06348
2022-09-10T02:13:02.009Z,71.32129
2022-09-10T02:15:02.001Z,71.9209
2022-09-10T02:18:19.549Z,71.7627
2022-09-10T02:20:19.710Z,71.19434
2022-09-10T02:22:19.661Z,71.49707
2022-09-10T02:24:19.572Z,71.4834
2022-09-10T02:26:19.706Z,71.20313
2022-09-10T02:28:19.813Z,71.17285
2022-09-10T02:30:19.658Z,71.375
2022-09-10T02:33:38.928Z,72.44434
2022-09-10T02:35:38.735Z,74.25293
2022-09-10T02:37:38.890Z,73.32422
2022-09-10T02:39:39.132Z,72.75684
2022-09-10T02:41:38.825Z,72.20508
2022-09-10T02:43:38.967Z,72.21094
2022-09-10T02:45:38.826Z,72.56348
2022-09-10T02:49:02.002Z,71.8877
2022-09-10T02:51:02.181Z,72.1748
2022-09-10T02:53:01.937Z,72.69336
2022-09-10T02:55:02.052Z,73.40234
2022-09-10T02:57:02.092Z,73.15039
2022-09-10T02:59:02.043Z,73.96973
2022-09-10T03:01:02.142Z,74.44238
2022-09-10T03:03:22.613Z,74.14844
2022-09-10T03:05:22.912Z,73.67578
2022-09-10T03:07:22.688Z,73.23926
2022-09-10T03:09:22.747Z,73.86621
2022-09-10T03:11:22.669Z,73.87695
2022-09-10T03:13:22.983Z,74.18555
2022-09-10T03:15:22.707Z,73.61133
2022-09-10T03:17:25.121Z,73.79297
2022-09-10T03:19:24.677Z,77.89746
2022-09-10T03:21:25.860Z,80.34277
2022-09-10T03:23:24.627Z,81.32617
2022-09-10T03:25:24.565Z,83.01855
2022-09-10T03:27:24.703Z,82.52637
2022-09-10T03:29:24.641Z,81.98145
2022-09-10T03:31:24.885Z,80.70313
2022-09-10T03:33:56.148Z,79.14551
2022-09-10T03:35:56.339Z,78.49609
2022-09-10T03:37:56.366Z,77.61328
2022-09-10T03:39:56.343Z,76.92871
2022-09-10T03:41:56.246Z,76.90332
2022-09-10T03:43:56.434Z,76.49414
2022-09-10T03:45:56.357Z,76.88281
2022-09-10T03:49:01.882Z,76.45215
2022-09-10T03:51:01.887Z,75.35645
2022-09-10T03:53:01.704Z,74.90723
2022-09-10T03:55:01.850Z,75.49414
2022-09-10T03:57:01.764Z,75.7002
2022-09-10T03:59:01.758Z,75.70996
2022-09-10T04:01:01.879Z,75.71582
2022-09-10T04:04:03.769Z,75.00879
2022-09-10T04:06:03.851Z,74.4668
2022-09-10T04:08:03.853Z,74.84375
2022-09-10T04:10:03.848Z,75.44727
2022-09-10T04:12:03.852Z,74.90527
2022-09-10T04:14:03.989Z,74.13281
2022-09-10T04:16:04.215Z,73.92676
2022-09-10T04:20:01.243Z,73.88184
2022-09-10T04:22:01.187Z,74.21094
2022-09-10T04:24:01.122Z,74.6582
2022-09-10T04:26:01.142Z,74.35938
2022-09-10T04:28:01.096Z,74.58984
2022-09-10T04:30:01.287Z,74.20996
2022-09-10T04:32:01.181Z,73.88184
2022-09-10T04:34:53.271Z,74.10254
2022-09-10T04:36:53.204Z,75.03711
2022-09-10T04:38:53.139Z,74.66797
2022-09-10T04:40:53.183Z,73.6123
2022-09-10T04:42:53.162Z,73.78906
2022-09-10T04:44:53.165Z,74.00195
2022-09-10T04:46:53.093Z,73.62207
2022-09-10T04:50:06.568Z,72.99023
2022-09-10T04:52:06.661Z,73.26172
2022-09-10T04:54:06.658Z,72.63379
2022-09-10T04:56:06.607Z,72.91895
2022-09-10T04:58:06.636Z,73.1084
2022-09-10T05:00:06.606Z,73.01465
2022-09-10T05:02:06.649Z,73.99609
2022-09-10T05:05:06.322Z,73.25781
2022-09-10T05:07:06.136Z,73.55469
2022-09-10T05:09:06.173Z,72.72266
2022-09-10T05:11:06.198Z,72.87598
2022-09-10T05:13:06.252Z,73.48828
2022-09-10T05:15:06.275Z,73.21289
2022-09-10T05:17:06.334Z,73.29297
2022-09-10T05:20:00.199Z,73.64453
2022-09-10T05:22:00.162Z,74.1123
2022-09-10T05:24:00.356Z,74.36035
2022-09-10T05:26:00.127Z,74.57031
2022-09-10T05:28:00.110Z,74.93066
2022-09-10T05:30:00.118Z,75.27246
2022-09-10T05:32:00.190Z,77.1416
2022-09-10T05:35:27.412Z,76.21191
2022-09-10T05:37:27.383Z,75.8252
2022-09-10T05:39:27.456Z,75.45508
2022-09-10T05:41:27.419Z,75.04688
2022-09-10T05:43:27.347Z,76.08887
2022-09-10T05:45:27.553Z,76.63672
2022-09-10T05:47:27.383Z,77.21582
2022-09-10T05:50:21.435Z,76.83496
2022-09-10T05:52:21.508Z,75.6084
2022-09-10T05:54:21.492Z,74.30859
2022-09-10T05:56:21.508Z,73.41992
2022-09-10T05:58:21.564Z,74.18066
2022-09-10T06:00:21.413Z,73.25098
2022-09-10T06:02:24.645Z,73.01855
2022-09-10T06:05:39.243Z,73.01953
2022-09-10T06:07:39.273Z,72.48633
2022-09-10T06:09:39.228Z,72.38477
2022-09-10T06:11:39.302Z,72.83008
2022-09-10T06:13:39.494Z,73.91309
2022-09-10T06:15:39.487Z,74.57031
2022-09-10T06:17:39.254Z,74.08398
2022-09-10T06:21:19.921Z,74.20898
2022-09-10T06:23:23.225Z,74.0498
2022-09-10T06:25:20.014Z,73.83887
2022-09-10T06:27:19.858Z,72.23438
2022-09-10T06:29:19.771Z,71.82227
2022-09-10T06:31:19.915Z,71.17969
2022-09-10T06:33:19.663Z,69.85059
2022-09-10T06:36:09.101Z,70.06836
2022-09-10T06:38:09.184Z,68.95703
2022-09-10T06:40:09.159Z,68.25391
2022-09-10T06:42:09.076Z,67.72949
2022-09-10T06:44:09.143Z,68.74023
2022-09-10T06:46:51.127Z,69.61523
2022-09-10T06:48:38.025Z,69.55957
2022-09-10T06:50:46.047Z,68.54199
2022-09-10T06:52:45.754Z,67.74609
2022-09-10T06:54:45.666Z,67.66992
2022-09-10T06:56:45.780Z,67.69531
2022-09-10T06:58:45.670Z,67.09961
2022-09-10T07:00:45.791Z,64.07324
2022-09-10T07:02:45.766Z,65.67578
2022-09-10T07:04:45.695Z,65.56055
2022-09-10T07:06:52.638Z,66.42773
2022-09-10T07:08:52.547Z,66.05957
2022-09-10T07:10:52.620Z,66.95703
2022-09-10T07:12:52.603Z,66.34473
2022-09-10T07:14:52.568Z,64.96875
2022-09-10T07:16:52.562Z,65.43555
2022-09-10T07:18:52.630Z,65.96289
2022-09-10T07:21:04.765Z,66.31152
2022-09-10T07:23:04.810Z,66.0166
2022-09-10T07:25:04.696Z,65.4248
2022-09-10T07:27:04.714Z,64.44922
2022-09-10T07:29:04.785Z,64.11523
2022-09-10T07:31:04.859Z,63.95605
2022-09-10T07:33:04.816Z,62.24023
2022-09-10T07:35:04.814Z,61.49023
2022-09-10T07:36:31.665Z,61.11621
2022-09-10T07:38:31.694Z,60.78027
2022-09-10T07:40:31.632Z,61.66406
2022-09-10T07:42:31.824Z,61.86621
2022-09-10T07:44:31.762Z,62.41797
2022-09-10T07:46:31.592Z,62.95215
2022-09-10T07:48:31.646Z,62.85059
2022-09-10T07:52:00.448Z,62.30957
2022-09-10T07:53:59.161Z,62.15137
2022-09-10T07:55:59.286Z,62.42676
2022-09-10T07:58:00.478Z,61.63184
2022-09-10T07:59:59.351Z,60.80078
2022-09-10T08:01:59.423Z,61.27246
2022-09-10T08:03:59.638Z,60.41992
2022-09-10T08:06:41.269Z,57.95801
2022-09-10T08:08:41.501Z,59.85645
2022-09-10T08:10:41.150Z,59.55566
2022-09-10T08:12:41.149Z,59.32813
2022-09-10T08:14:41.134Z,58.89648
2022-09-10T08:16:44.694Z,58.62988
2022-09-10T08:18:41.356Z,57.3623
2022-09-10T08:20:41.114Z,57.06543
2022-09-10T08:21:49.068Z,57.62402
2022-09-10T08:23:49.081Z,57.37891
2022-09-10T08:25:49.081Z,59.49414
2022-09-10T08:27:49.033Z,57.98047
2022-09-10T08:29:49.041Z,57.88867
2022-09-10T08:31:49.104Z,55.88867
2022-09-10T08:33:49.098Z,56.20215
2022-09-10T08:35:49.046Z,54.4541
2022-09-10T08:37:37.672Z,53.44434
2022-09-10T08:39:37.768Z,52.6748
2022-09-10T08:41:37.668Z,53.02637
2022-09-10T08:43:37.673Z,52.06934
2022-09-10T08:45:37.821Z,52.30273
2022-09-10T08:47:37.694Z,52.29004
2022-09-10T08:49:37.673Z,53.7041
2022-09-10T08:53:00.268Z,52.80469
2022-09-10T08:55:00.405Z,51.82813
2022-09-10T08:57:00.336Z,53.0332
2022-09-10T08:59:00.371Z,52.5791
2022-09-10T09:01:00.364Z,52.91016
2022-09-10T09:03:00.410Z,52.84961
2022-09-10T09:05:00.293Z,52.31738
2022-09-10T09:07:16.865Z,53.56445
2022-09-10T09:09:16.834Z,53.16113
2022-09-10T09:11:16.971Z,52.68164
2022-09-10T09:13:16.822Z,52.56445
2022-09-10T09:15:16.813Z,51.35938
2022-09-10T09:17:16.862Z,52.66113
2022-09-10T09:19:16.781Z,52.18555
2022-09-10T09:21:16.888Z,51.95117
2022-09-10T09:22:29.259Z,51.53613
2022-09-10T09:24:29.783Z,51.24316
2022-09-10T09:26:29.427Z,51.69043
2022-09-10T09:28:29.234Z,52.15625
2022-09-10T09:30:29.293Z,51.36035
2022-09-10T09:32:29.263Z,50.93262
2022-09-10T09:34:29.219Z,48.56445
2022-09-10T09:36:29.872Z,49.88477
2022-09-10T09:37:52.879Z,48.71094
2022-09-10T09:39:53.460Z,47.66504
2022-09-10T09:41:52.923Z,48.74414
2022-09-10T09:43:52.836Z,47.95898
2022-09-10T09:45:52.953Z,48.09082
2022-09-10T09:47:52.913Z,47.46875
2022-09-10T09:49:53.144Z,48.37207
2022-09-10T09:53:32.678Z,46.4043
2022-09-10T09:55:32.707Z,46.37207
2022-09-10T09:57:32.812Z,46.17871
2022-09-10T09:59:33.012Z,44.7959
2022-09-10T10:01:32.889Z,45.05664
2022-09-10T10:03:32.717Z,45.50684
2022-09-10T10:05:32.732Z,45.97168
2022-09-10T10:07:50.716Z,45.60742
2022-09-10T10:09:50.498Z,46.07422
2022-09-10T10:11:50.565Z,46.3125
2022-09-10T10:13:50.481Z,44.98828
2022-09-10T10:15:50.547Z,44.9707
2022-09-10T10:17:50.468Z,44.85059
2022-09-10T10:19:50.487Z,45.86035
2022-09-10T10:21:50.588Z,45.64844
2022-09-10T10:23:55.973Z,45.72559
2022-09-10T10:25:56.006Z,45.87891
2022-09-10T10:27:56.001Z,46.30469
2022-09-10T10:29:56.146Z,45.89258
2022-09-10T10:31:56.032Z,46.19727
2022-09-10T10:33:56.023Z,45.50879
2022-09-10T10:35:55.985Z,44.99121
2022-09-10T10:38:14.991Z,44.4375
2022-09-10T10:40:14.969Z,43.10254
2022-09-10T10:42:14.953Z,43.52344
2022-09-10T10:44:14.910Z,42.86328
2022-09-10T10:46:15.112Z,43.03027
2022-09-10T10:48:14.990Z,42.17285
2022-09-10T10:50:15.021Z,42.96777
2022-09-10T10:52:14.920Z,42.71582
2022-09-10T10:54:05.407Z,42.81445
2022-09-10T10:56:06.047Z,43.64453
2022-09-10T10:58:05.466Z,42.75684
2022-09-10T11:00:06.020Z,41.78125
2022-09-10T11:02:08.453Z,42.41211
2022-09-10T11:04:05.458Z,42.36914
2022-09-10T11:06:05.624Z,42.24121
2022-09-10T11:09:16.080Z,42.48438
2022-09-10T11:11:16.115Z,42.72559
2022-09-10T11:13:15.902Z,42.81055
2022-09-10T11:15:15.967Z,42.53027
2022-09-10T11:17:15.968Z,42.51758
2022-09-10T11:19:16.006Z,41.36133
2022-09-10T11:21:16.000Z,41.33594
2022-09-10T11:23:47.085Z,41.83203
2022-09-10T11:25:47.047Z,41.37109
2022-09-10T11:27:47.244Z,39.88086
2022-09-10T11:29:47.034Z,40.7666
2022-09-10T11:31:47.194Z,40.20215
2022-09-10T11:33:47.200Z,41.16699
2022-09-10T11:35:47.077Z,39.41602
2022-09-10T11:38:48.918Z,40.83398
2022-09-10T11:40:48.967Z,39.32715
2022-09-10T11:42:48.900Z,39.71094
2022-09-10T11:44:48.918Z,40.05176
2022-09-10T11:46:48.867Z,39.97363
2022-09-10T11:48:48.872Z,38.7207
2022-09-10T11:50:48.971Z,40.18848
2022-09-10T11:52:48.875Z,39.00098
2022-09-10T11:54:32.989Z,38.57129
2022-09-10T11:56:32.989Z,38.5625
2022-09-10T11:58:32.884Z,38.65625
2022-09-10T12:00:32.862Z,39.42383
2022-09-10T12:02:32.972Z,40.10449
2022-09-10T12:04:39.776Z,39.00586
2022-09-10T12:06:32.968Z,39.85059
2022-09-10T12:09:19.439Z,39.17383
2022-09-10T12:11:19.396Z,39.71484
2022-09-10T12:13:19.197Z,38.86523
2022-09-10T12:15:18.892Z,39.77539
2022-09-10T12:17:18.840Z,40.15039
2022-09-10T12:19:18.896Z,38.91113
2022-09-10T12:21:18.966Z,37.27051
2022-09-10T12:25:08.870Z,38.8418
2022-09-10T12:27:08.998Z,37.73242
2022-09-10T12:29:09.009Z,36.66016
2022-09-10T12:31:09.202Z,36.01855
2022-09-10T12:33:08.885Z,39.08691
2022-09-10T12:35:09.018Z,38.14063
2022-09-10T12:37:08.877Z,37.83203
2022-09-10T12:40:13.434Z,37.44238
2022-09-10T12:42:08.884Z,37.22266
2022-09-10T12:44:08.743Z,38.05078
2022-09-10T12:46:09.030Z,37.49805
2022-09-10T12:48:08.731Z,37.48633
2022-09-10T12:50:08.703Z,38.13379
2022-09-10T12:52:08.673Z,38.2666
2022-09-10T12:54:55.485Z,38.85938
2022-09-10T12:56:54.850Z,38.35254
2022-09-10T12:58:54.887Z,37.40234
2022-09-10T13:00:54.906Z,37.44824
2022-09-10T13:02:54.874Z,37.70605
2022-09-10T13:04:54.894Z,36.4834
2022-09-10T13:06:54.851Z,35.78418
2022-09-10T13:09:44.694Z,36.0791
2022-09-10T13:11:44.642Z,36.30273
2022-09-10T13:13:44.772Z,36.91602
2022-09-10T13:15:44.777Z,38.02441
2022-09-10T13:17:44.722Z,38.10547
2022-09-10T13:19:44.637Z,37.70703
2022-09-10T13:21:44.983Z,38.21777
2022-09-10T13:23:44.677Z,37.78711
2022-09-10T13:25:11.908Z,38.16699
2022-09-10T13:27:11.908Z,38.51953
2022-09-10T13:29:11.985Z,37.58398
2022-09-10T13:31:12.143Z,38.65625
2022-09-10T13:33:11.962Z,37.12109
2022-09-10T13:35:11.991Z,37.55078
2022-09-10T13:37:11.934Z,37.79883
2022-09-10T13:40:21.921Z,38.04883
2022-09-10T13:42:21.838Z,38.26367
2022-09-10T13:44:21.766Z,38.19238
2022-09-10T13:46:22.173Z,37.85645
2022-09-10T13:48:21.846Z,36.63477
2022-09-10T13:50:21.729Z,37.8418
2022-09-10T13:52:22.041Z,38.56836
2022-09-10T13:55:44.501Z,38.05371
2022-09-10T13:57:44.486Z,37.79199
2022-09-10T13:59:44.608Z,37.35156
2022-09-10T14:01:44.684Z,37.36426
2022-09-10T14:03:44.443Z,37.1084
2022-09-10T14:05:44.563Z,37.57031
2022-09-10T14:07:44.385Z,37.58008
2022-09-10T14:10:49.915Z,38.17188
2022-09-10T14:12:49.885Z,38.08496
2022-09-10T14:14:49.986Z,37.37793
2022-09-10T14:16:49.871Z,39.17188
2022-09-10T14:18:50.002Z,38.43652
2022-09-10T14:20:49.819Z,38.61621
2022-09-10T14:22:49.838Z,38.98828
2022-09-10T14:26:31.572Z,39.68652
2022-09-10T14:28:31.532Z,39.49414
2022-09-10T14:30:32.596Z,39.83789
2022-09-10T14:32:31.551Z,40.59375
2022-09-10T14:34:31.533Z,40.63477
2022-09-10T14:36:31.531Z,40.02637
2022-09-10T14:38:31.537Z,41.02441
2022-09-10T14:40:53.049Z,41.05957
2022-09-10T14:42:53.102Z,41.28125
2022-09-10T14:44:53.077Z,41.54785
2022-09-10T14:46:53.087Z,42.55859
2022-09-10T14:48:53.071Z,42.82129
2022-09-10T14:50:53.113Z,42.06348
2022-09-10T14:52:53.056Z,41.57813
2022-09-10T14:54:53.083Z,41.65625
2022-09-10T14:56:05.601Z,39.73535
2022-09-10T14:58:05.378Z,40.32129
2022-09-10T15:00:05.411Z,41.00879
2022-09-10T15:02:05.489Z,41.37305
2022-09-10T15:04:05.395Z,40.71191
2022-09-10T15:06:05.358Z,40.2002
2022-09-10T15:08:05.371Z,41.16016
2022-09-10T15:11:59.089Z,40.89453
2022-09-10T15:13:59.121Z,41.76855
2022-09-10T15:15:59.108Z,41.38574
2022-09-10T15:17:59.285Z,41.94141
2022-09-10T15:19:59.135Z,40.90234
2022-09-10T15:21:59.046Z,40.87891
2022-09-10T15:23:59.169Z,41.96191
2022-09-10T15:26:58.744Z,41.57031
2022-09-10T15:28:58.775Z,42.68848
2022-09-10T15:30:58.875Z,43.10352
2022-09-10T15:32:58.760Z,42.26758
2022-09-10T15:34:58.836Z,41.47656
2022-09-10T15:36:58.791Z,42.05664
2022-09-10T15:38:58.724Z,42.06641
2022-09-10T15:41:40.956Z,42.58887
2022-09-10T15:43:41.953Z,42.95898
2022-09-10T15:45:40.977Z,43.10449
2022-09-10T15:47:43.259Z,43.8457
2022-09-10T15:49:40.954Z,44.19531
2022-09-10T15:51:40.951Z,43.15234
2022-09-10T15:53:41.331Z,43.46875
2022-09-10T15:56:58.043Z,44.6543
2022-09-10T15:58:58.065Z,45.29102
2022-09-10T16:00:58.036Z,45.14453
2022-09-10T16:02:58.194Z,46.49902
2022-09-10T16:04:58.119Z,47.2041
2022-09-10T16:06:58.049Z,47.47266
2022-09-10T16:08:58.160Z,47.34375
2022-09-10T16:12:45.499Z,46.31055
2022-09-10T16:14:45.450Z,47.99512
2022-09-10T16:16:45.436Z,48.58984
2022-09-10T16:18:45.408Z,48.6543
2022-09-10T16:20:45.430Z,47.84961
2022-09-10T16:22:45.572Z,48.7832
2022-09-10T16:24:45.415Z,49.03613
2022-09-10T16:27:12.728Z,49.38477
2022-09-10T16:29:12.596Z,49.70605
2022-09-10T16:31:12.751Z,48.32129
2022-09-10T16:33:12.639Z,48.66016
2022-09-10T16:35:12.572Z,49.31543
2022-09-10T16:37:12.701Z,49.64551
2022-09-10T16:39:12.901Z,49.29688
2022-09-10T16:43:00.844Z,48.7373
2022-09-10T16:45:00.956Z,47.56055
2022-09-10T16:47:00.864Z,49.72656
2022-09-10T16:49:00.835Z,49.19824
2022-09-10T16:51:00.860Z,50.18066
2022-09-10T16:53:00.850Z,50.43652
2022-09-10T16:55:01.036Z,50.50977
2022-09-10T16:57:26.906Z,50.81543
2022-09-10T16:59:26.926Z,50.18359
2022-09-10T17:01:27.019Z,50.98145
2022-09-10T17:03:26.904Z,50.99902
2022-09-10T17:05:26.935Z,51.09668
2022-09-10T17:07:26.932Z,51.04004
2022-09-10T17:09:26.919Z,51.42285
2022-09-10T17:12:43.415Z,52.09766
2022-09-10T17:14:43.455Z,52.32715
2022-09-10T17:16:43.414Z,52.62793
2022-09-10T17:18:43.428Z,52.16797
2022-09-10T17:20:43.402Z,51.96582
2022-09-10T17:22:43.374Z,52.34961
2022-09-10T17:24:43.435Z,52.2832
2022-09-10T17:28:16.717Z,52.60645
2022-09-10T17:30:16.740Z,53.02051
2022-09-10T17:32:16.677Z,53.05469
2022-09-10T17:34:16.642Z,53.38965
2022-09-10T17:36:16.658Z,53.67773
2022-09-10T17:38:16.620Z,53.75879
2022-09-10T17:40:16.659Z,54.20117
2022-09-10T17:43:27.817Z,54.56152
2022-09-10T17:45:29.180Z,54.66113
2022-09-10T17:47:27.207Z,54.54492
2022-09-10T17:49:27.193Z,54.87109
2022-09-10T17:51:27.124Z,55.15918
2022-09-10T17:53:31.095Z,55.27148
2022-09-10T17:55:33.635Z,55.29102
2022-09-10T17:58:12.793Z,55.32324
2022-09-10T18:00:12.894Z,55.53418
2022-09-10T18:02:12.862Z,55.50488
2022-09-10T18:04:12.828Z,55.4209
2022-09-10T18:06:12.840Z,55.39355
2022-09-10T18:08:12.900Z,55.87012
2022-09-10T18:10:12.852Z,55.7334
2022-09-10T18:13:56.879Z,56.11719
2022-09-10T18:15:56.915Z,56.14355
2022-09-10T18:17:56.819Z,56.0957
2022-09-10T18:19:57.010Z,56.41602
2022-09-10T18:21:56.808Z,56.55664
2022-09-10T18:23:56.795Z,56.74414
2022-09-10T18:25:56.762Z,56.70605
2022-09-10T18:28:59.876Z,57.18359
2022-09-10T18:31:00.196Z,57.38965
2022-09-10T18:32:59.933Z,57.53711
2022-09-10T18:34:59.906Z,57.43262
2022-09-10T18:37:00.040Z,57.7666
2022-09-10T18:38:59.975Z,57.96191
2022-09-10T18:40:59.881Z,58.03223
2022-09-10T18:43:50.505Z,58.61621
2022-09-10T18:45:50.387Z,58.58398
2022-09-10T18:47:50.572Z,58.87402
2022-09-10T18:49:50.488Z,59.05078
2022-09-10T18:51:50.497Z,59.25879
2022-09-10T18:53:50.418Z,59.57324
2022-09-10T18:55:50.458Z,59.78809
2022-09-10T18:59:31.061Z,60.31445
2022-09-10T19:01:31.245Z,60.47852
2022-09-10T19:03:31.053Z,60.62402
2022-09-10T19:05:31.046Z,60.32813
2022-09-10T19:07:31.012Z,60.28418
2022-09-10T19:09:31.110Z,59.97852
2022-09-10T19:11:31.013Z,59.91211
2022-09-10T19:13:44.661Z,60.00293
2022-09-10T19:15:44.787Z,59.95117
2022-09-10T19:17:44.666Z,59.59863
2022-09-10T19:19:44.781Z,59.79785
2022-09-10T19:21:45.113Z,59.28906
2022-09-10T19:23:44.671Z,59.62109
2022-09-10T19:25:44.836Z,59.70996
2022-09-10T19:27:44.713Z,59.7832
2022-09-10T19:28:58.713Z,59.76855
2022-09-10T19:30:58.630Z,59.99414
2022-09-10T19:32:58.859Z,59.43262
2022-09-10T19:34:58.611Z,59.69336
2022-09-10T19:36:58.767Z,59.88574
2022-09-10T19:38:58.590Z,59.86133
2022-09-10T19:40:58.590Z,59.60938
2022-09-10T19:42:58.707Z,59.98047
2022-09-10T19:44:08.174Z,60.12012
2022-09-10T19:46:08.298Z,59.76855
2022-09-10T19:48:08.222Z,60.23438
2022-09-10T19:50:11.075Z,60.50684
2022-09-10T19:52:08.371Z,60.59375
2022-09-10T19:54:08.360Z,60.4043
2022-09-10T19:56:08.284Z,60.49805
2022-09-10T19:58:08.265Z,60.57617
2022-09-10T20:00:01.065Z,60.54688
2022-09-10T20:01:59.945Z,60.98242
2022-09-10T20:03:59.689Z,60.87012
2022-09-10T20:05:59.631Z,61.03613
2022-09-10T20:07:59.719Z,60.92871
2022-09-10T20:10:01.103Z,61.06543
2022-09-10T20:11:59.754Z,60.7998
2022-09-10T20:15:11.595Z,61.33789
2022-09-10T20:17:11.571Z,61.53418
2022-09-10T20:19:12.481Z,61.68555
2022-09-10T20:21:11.593Z,61.67383
2022-09-10T20:23:11.788Z,61.88086
2022-09-10T20:25:11.736Z,62.00293
2022-09-10T20:27:11.831Z,61.99121
2022-09-10T20:29:52.503Z,62.00488
2022-09-10T20:31:52.703Z,62.17383
2022-09-10T20:33:52.758Z,62.32324
2022-09-10T20:35:52.427Z,62.57813
2022-09-10T20:37:52.642Z,62.69238
2022-09-10T20:39:52.511Z,62.60645
2022-09-10T20:41:52.960Z,62.99219
2022-09-10T20:45:14.913Z,63.2832
2022-09-10T20:47:14.967Z,63.19043
2022-09-10T20:49:14.876Z,62.71484
2022-09-10T20:51:14.859Z,62.83887
2022-09-10T20:53:14.957Z,63.1543
2022-09-10T20:55:14.962Z,62.97656
2022-09-10T20:57:14.853Z,62.91504
2022-09-10T20:59:56.557Z,62.92285
2022-09-10T21:01:56.733Z,62.9707
2022-09-10T21:03:56.704Z,63.32324
2022-09-10T21:05:56.525Z,63.43066
2022-09-10T21:07:56.536Z,63.60449
2022-09-10T21:09:56.620Z,64.00293
2022-09-10T21:11:56.595Z,64.26172
2022-09-10T21:13:56.508Z,64.34375
2022-09-10T21:16:01.654Z,64.52539
2022-09-10T21:18:01.485Z,64.2168
2022-09-10T21:20:01.299Z,64.12012
2022-09-10T21:22:01.272Z,64.36719
2022-09-10T21:24:01.279Z,64.37891
2022-09-10T21:26:01.315Z,64.90527
2022-09-10T21:28:01.327Z,65.11914
2022-09-10T21:30:31.528Z,65.0127
2022-09-10T21:32:31.512Z,65.0918
2022-09-10T21:34:31.491Z,64.86914
2022-09-10T21:36:31.586Z,64.93945
2022-09-10T21:38:31.531Z,65.19824
2022-09-10T21:40:31.583Z,65.18555
2022-09-10T21:42:31.565Z,65.53711
2022-09-10T21:46:10.083Z,65.39551
2022-09-10T21:48:09.706Z,65.85156
2022-09-10T21:50:09.715Z,66.10156
2022-09-10T21:52:09.714Z,66.06738
2022-09-10T21:54:09.652Z,66.08789
2022-09-10T21:56:09.677Z,66.14746
2022-09-10T21:58:09.729Z,65.97656
2022-09-10T22:00:59.615Z,66.10742
2022-09-10T22:02:59.638Z,65.94824
2022-09-10T22:04:59.665Z,66.00488
2022-09-10T22:06:59.616Z,65.84766
2022-09-10T22:08:59.629Z,66.35254
2022-09-10T22:10:59.616Z,66.18652
2022-09-10T22:12:59.638Z,66.125
2022-09-10T22:16:26.697Z,65.95508
2022-09-10T22:18:26.638Z,65.75293
2022-09-10T22:20:26.722Z,65.68164
2022-09-10T22:22:26.634Z,65.61426
2022-09-10T22:24:26.696Z,65.33789
2022-09-10T22:26:26.652Z,65.37988
2022-09-10T22:28:26.618Z,65.33105
2022-09-10T22:30:59.973Z,65.47949
2022-09-10T22:32:59.908Z,65.39551
2022-09-10T22:35:00.201Z,65.18848
2022-09-10T22:36:59.928Z,65.18652
2022-09-10T22:38:59.884Z,65.52637
2022-09-10T22:40:59.881Z,65.4668
2022-09-10T22:42:59.919Z,65.69043
2022-09-10T22:44:59.868Z,65.11328
2022-09-10T22:46:22.902Z,65.47461
2022-09-10T22:48:22.840Z,65.47461
2022-09-10T22:50:22.888Z,65.35645
2022-09-10T22:52:22.864Z,65.26465
2022-09-10T22:54:22.838Z,65.7334
2022-09-10T22:56:22.817Z,65.7002
2022-09-10T22:58:22.806Z,65.72852
2022-09-10T23:02:12.480Z,66.15039
2022-09-10T23:04:12.477Z,66.40039
2022-09-10T23:06:12.453Z,65.9873
2022-09-10T23:08:12.470Z,66.30762
2022-09-10T23:10:12.424Z,66.33203
2022-09-10T23:12:12.424Z,66.18164
2022-09-10T23:14:12.477Z,65.78223
2022-09-10T23:16:34.096Z,65.90527
2022-09-10T23:18:34.033Z,66.15332
2022-09-10T23:20:34.106Z,66.15918
2022-09-10T23:22:34.050Z,66.18848
2022-09-10T23:24:34.046Z,65.85938
2022-09-10T23:26:34.053Z,65.90723
2022-09-10T23:28:34.057Z,66.0293
2022-09-10T23:30:34.064Z,66.06934
2022-09-10T23:31:37.266Z,66.12207
2022-09-10T23:33:37.118Z,66.22852
2022-09-10T23:35:37.181Z,66.40039
2022-09-10T23:37:37.107Z,66.33105
2022-09-10T23:39:37.385Z,66.27637
2022-09-10T23:41:37.086Z,66.75684
2022-09-10T23:43:37.093Z,66.86035
2022-09-10T23:45:37.148Z,66.75488
2022-09-10T23:47:35.646Z,66.74023
2022-09-10T23:49:35.595Z,66.87793
2022-09-10T23:51:35.636Z,66.51172
2022-09-10T23:53:35.580Z,66.76563
2022-09-10T23:55:35.568Z,66.83301
2022-09-10T23:57:35.641Z,67.00195
2022-09-10T23:59:35.599Z,66.81055
